Hauptseite
METAR-TAF:

METAR-TAF

Flughäfen :

Torsby, Schweden

Breite: 60-09-17N, Länge: 12-59-40E, Höhe: 120 m

Beobachtung

Neuester Wetterbericht von vor 26 Minuten, um 00:20 UTC
Wind 3 kt aus Nordwest
Temperatur -1°C
Luftfeuchtigkeit 93%
Luftdruck 1006 hPa
Sichtweite 10 km oder mehr

METAR: ESST 170020Z AUTO 31003KT 9999 FEW051/// OVC066/// M01/M02 Q1006

Zeit: 02:46 (00:46 UTC)


TAF: fehlend

Wetterbeobachtungen und Prognosen von mehr als 4000 Flughäfen (METAR und TAF Bericht).

Die verfügbaren Stationen werden durch gelbe und rote Markierungen auf der Karte dargestellt.

Führen Sie die Maus auf sie, um den Namen der Station zu sehen.

Darauf klicken, um die Beobachtung von Wetterbeobachtungen und Prognosen zu sehen.

Um die Karte zu ändern : klicken Sie auf den grünen Tasten mit einem schwarzen Kreuz Zum Vergrößern, auf den grünen Button mit einem Gedankenstrich zu verkleinern, oder auf die grünen Pfeile für benachbarte Karten.


METAR-TAF: